Terminal Aerodrome Forecast
Issued by NWS Charleston, WV

Current Version | Previous Version | Graphics & Text | Print | Product List | Glossary On
Versions: 1 2 3 4 5 6 7 8 9 10 11 12 13 14 15 16 17 18 19 20 21 22
919
FTUS41 KRLX 221725
TAFPKB
TAF
KPKB 221725Z 2218/2318 30007KT P6SM FEW050
     FM230100 02002KT P6SM FEW250
     FM230900 00000KT 5SM BR SCT150
     FM231300 08004KT P6SM SCT150=

USA.gov is the U.S. government's official web portal to all federal, state and local government web resources and services.